Time;durP1;ratioP1;P1;durP2;ratioP2;P2;SDS_P1;SDS_P2;PMS_P1;PMS_P2;Temp;Humidity;BMP_temperature;BMP_pressure;BME280_temperature;BME280_humidity;BME280_pressure;Samples;Min_cycle;Max_cycle;Signal;HPM_P1;HPM_P2
2023/09/08 00:00:00;;;;;;;5.65;5.25;;;;;;;;;;5099824;28;20211;-64
2023/09/08 00:02:28;;;;;;;5.50;5.10;;;;;;;;;;5099514;28;20207;-64
2023/09/08 00:04:56;;;;;;;5.55;5.05;;;;;;;;;;5099623;28;20204;-63
2023/09/08 00:07:24;;;;;;;5.65;5.25;;;;;;;;;;5098265;28;20235;-63
2023/09/08 00:09:52;;;;;;;5.45;5.00;;;;;;;;;;5099061;28;20579;-63
2023/09/08 00:12:20;;;;;;;5.65;5.15;;;;;;;;;;5099324;28;20290;-64
2023/09/08 00:14:47;;;;;;;5.50;5.10;;;;;;;;;;5099273;28;20235;-64
2023/09/08 00:17:14;;;;;;;5.40;5.00;;;;;;;;;;5099261;28;20200;-64
2023/09/08 00:19:42;;;;;;;5.22;4.82;;;;;;;;;;5099193;28;20218;-63
2023/09/08 00:22:09;;;;;;;5.20;4.80;;;;;;;;;;5099240;28;20234;-63
2023/09/08 00:24:36;;;;;;;5.30;4.90;;;;;;;;;;5098938;28;20203;-63
2023/09/08 00:27:05;;;;;;;5.47;5.07;;;;;;;;;;5098815;28;20228;-63
2023/09/08 00:29:33;;;;;;;5.25;4.85;;;;;;;;;;5098524;28;20286;-63
2023/09/08 00:32:00;;;;;;;5.40;4.90;;;;;;;;;;5098614;28;20243;-64
2023/09/08 00:34:27;;;;;;;5.32;4.90;;;;;;;;;;5099139;28;20215;-64
2023/09/08 00:36:55;;;;;;;5.20;4.80;;;;;;;;;;5099019;28;20524;-64
2023/09/08 00:39:22;;;;;;;5.45;5.05;;;;;;;;;;5098844;28;20567;-64
2023/09/08 00:41:49;;;;;;;5.07;4.68;;;;;;;;;;5098692;28;20203;-64
2023/09/08 00:44:18;;;;;;;5.75;5.28;;;;;;;;;;5098599;28;20208;-64
2023/09/08 00:46:46;;;;;;;4.90;4.60;;;;;;;;;;5098659;28;20599;-63
2023/09/08 00:49:13;;;;;;;5.20;4.80;;;;;;;;;;5098600;28;20583;-64
2023/09/08 00:51:40;;;;;;;5.22;4.72;;;;;;;;;;5098580;28;20203;-63
2023/09/08 00:54:08;;;;;;;4.85;4.45;;;;;;;;;;5098063;28;20609;-63
2023/09/08 00:56:36;;;;;;;5.10;4.30;;;;;;;;;;5098701;28;20203;-63
2023/09/08 00:59:03;;;;;;;5.07;4.65;;;;;;;;;;5098421;28;20210;-63
2023/09/08 01:01:34;;;;;;;4.97;4.63;;;;;;;;;;5098160;28;20203;-63
2023/09/08 01:04:02;;;;;;;5.22;4.72;;;;;;;;;;5098153;28;20630;-63
2023/09/08 01:06:29;;;;;;;5.10;4.70;;;;;;;;;;5098094;28;20215;-63
2023/09/08 01:08:57;;;;;;;4.85;4.55;;;;;;;;;;5098079;28;20210;-63
2023/09/08 01:11:24;;;;;;;4.97;4.57;;;;;;;;;;5098188;28;20207;-63
2023/09/08 01:13:51;;;;;;;5.47;5.05;;;;;;;;;;5097735;28;20250;-63
2023/09/08 01:16:18;;;;;;;4.78;4.40;;;;;;;;;;5097858;28;20208;-63
2023/09/08 01:18:49;;;;;;;5.30;4.90;;;;;;;;;;5097771;28;20229;-63
2023/09/08 01:21:37;;;;;;;4.80;4.47;;;;;;;;;;5097787;28;20211;-63
2023/09/08 01:24:16;;;;;;;4.93;4.53;;;;;;;;;;5098053;28;20211;-63
2023/09/08 01:26:45;;;;;;;4.43;4.03;;;;;;;;;;5098157;28;20475;-64
2023/09/08 01:29:14;;;;;;;4.95;4.53;;;;;;;;;;5098283;28;20211;-63
2023/09/08 01:31:41;;;;;;;5.13;4.70;;;;;;;;;;5098181;28;20331;-63
2023/09/08 01:34:10;;;;;;;4.80;4.40;;;;;;;;;;5097463;28;20210;-63
2023/09/08 01:36:37;;;;;;;4.93;4.53;;;;;;;;;;5097608;28;20210;-63
2023/09/08 01:39:05;;;;;;;4.90;4.50;;;;;;;;;;5097950;28;20211;-63
2023/09/08 01:41:32;;;;;;;4.70;4.40;;;;;;;;;;5097828;28;20214;-63
2023/09/08 01:44:05;;;;;;;5.13;4.72;;;;;;;;;;5097887;28;20215;-63
2023/09/08 01:46:32;;;;;;;5.28;4.78;;;;;;;;;;5097686;28;20215;-63
2023/09/08 01:48:59;;;;;;;4.95;4.47;;;;;;;;;;5097875;28;20203;-64
2023/09/08 01:51:26;;;;;;;4.63;4.32;;;;;;;;;;5097431;28;20204;-64
2023/09/08 01:53:54;;;;;;;5.18;4.75;;;;;;;;;;5097401;28;20211;-64
2023/09/08 01:56:22;;;;;;;4.85;4.55;;;;;;;;;;5097729;28;20267;-63
2023/09/08 01:58:50;;;;;;;4.80;4.45;;;;;;;;;;5097364;28;20196;-64
2023/09/08 02:01:18;;;;;;;4.90;4.50;;;;;;;;;;5097506;28;20211;-64
2023/09/08 02:03:46;;;;;;;5.18;4.78;;;;;;;;;;5097642;28;20203;-63
2023/09/08 02:06:13;;;;;;;4.68;4.38;;;;;;;;;;5097293;28;20204;-63
2023/09/08 02:08:41;;;;;;;5.70;5.20;;;;;;;;;;5097616;28;20739;-64
2023/09/08 02:11:08;;;;;;;5.07;4.68;;;;;;;;;;5097415;28;20214;-63
2023/09/08 02:13:35;;;;;;;4.85;4.55;;;;;;;;;;5097136;28;20242;-63
2023/09/08 02:16:03;;;;;;;4.65;4.28;;;;;;;;;;5097129;28;20686;-63
2023/09/08 02:18:31;;;;;;;5.20;4.80;;;;;;;;;;5097611;28;20200;-63
2023/09/08 02:20:59;;;;;;;5.47;4.97;;;;;;;;;;5097702;28;20203;-63
2023/09/08 02:23:26;;;;;;;4.70;4.30;;;;;;;;;;5097553;28;20276;-63
2023/09/08 02:25:53;;;;;;;4.32;3.97;;;;;;;;;;5097272;28;20211;-63
2023/09/08 02:28:21;;;;;;;4.95;4.55;;;;;;;;;;5097267;28;20227;-63
2023/09/08 02:30:48;;;;;;;4.70;4.38;;;;;;;;;;5097982;28;20235;-63
2023/09/08 02:33:15;;;;;;;5.10;4.60;;;;;;;;;;5101283;28;20211;-63
2023/09/08 02:35:45;;;;;;;4.70;4.32;;;;;;;;;;5101125;28;20212;-63
2023/09/08 02:38:12;;;;;;;5.15;4.75;;;;;;;;;;5101360;28;20200;-63
2023/09/08 02:40:39;;;;;;;5.05;4.65;;;;;;;;;;5100891;28;20219;-63
2023/09/08 02:43:07;;;;;;;5.35;4.93;;;;;;;;;;5100870;28;20211;-64
2023/09/08 02:45:34;;;;;;;5.00;4.60;;;;;;;;;;5100684;28;20579;-63
2023/09/08 02:48:01;;;;;;;5.07;4.68;;;;;;;;;;5101292;28;20224;-63
2023/09/08 02:50:29;;;;;;;4.80;4.50;;;;;;;;;;5101003;28;20475;-63
2023/09/08 02:52:58;;;;;;;5.07;4.68;;;;;;;;;;5100714;28;20293;-63
2023/09/08 02:58:01;;;;;;;5.57;4.72;;;;;;;;;;5540836;22;20228;-63
2023/09/08 03:00:29;;;;;;;4.90;4.50;;;;;;;;;;5080906;28;20307;-63
2023/09/08 03:02:57;;;;;;;4.18;3.85;;;;;;;;;;5080303;28;20204;-63
2023/09/08 03:05:25;;;;;;;4.78;4.35;;;;;;;;;;5080595;28;20299;-63
2023/09/08 03:07:52;;;;;;;4.63;4.25;;;;;;;;;;5079957;28;20235;-63
2023/09/08 03:10:21;;;;;;;4.13;3.80;;;;;;;;;;5080133;28;20295;-63
2023/09/08 03:12:48;;;;;;;4.50;4.20;;;;;;;;;;5080418;28;20827;-63
2023/09/08 03:15:16;;;;;;;4.88;4.50;;;;;;;;;;5079774;28;20204;-63
2023/09/08 03:17:43;;;;;;;4.80;4.40;;;;;;;;;;5080222;28;20568;-63
2023/09/08 03:20:13;;;;;;;4.00;3.70;;;;;;;;;;5079848;28;20263;-63
2023/09/08 03:22:40;;;;;;;4.40;4.10;;;;;;;;;;5079961;28;20595;-63
2023/09/08 03:25:08;;;;;;;4.10;3.80;;;;;;;;;;5080020;28;20211;-63
2023/09/08 03:27:37;;;;;;;4.63;4.22;;;;;;;;;;5079698;28;20627;-63
2023/09/08 03:30:05;;;;;;;4.60;4.20;;;;;;;;;;5079571;28;20205;-63
2023/09/08 03:32:33;;;;;;;4.55;4.25;;;;;;;;;;5079396;28;20212;-63
2023/09/08 03:35:00;;;;;;;4.32;4.03;;;;;;;;;;5079813;28;20200;-63
2023/09/08 03:37:28;;;;;;;4.72;4.43;;;;;;;;;;5078953;28;20200;-63
2023/09/08 03:39:55;;;;;;;4.70;4.40;;;;;;;;;;5078984;28;20639;-63
2023/09/08 03:42:23;;;;;;;5.57;4.93;;;;;;;;;;5078748;28;20205;-63
2023/09/08 03:44:52;;;;;;;4.80;4.40;;;;;;;;;;5079169;28;20204;-63
2023/09/08 03:47:19;;;;;;;4.50;4.20;;;;;;;;;;5079296;28;20265;-63
2023/09/08 03:49:47;;;;;;;4.40;4.10;;;;;;;;;;5079121;28;20258;-63
2023/09/08 03:52:14;;;;;;;4.75;4.40;;;;;;;;;;5078676;28;20258;-63
2023/09/08 03:54:42;;;;;;;4.70;4.30;;;;;;;;;;5078807;28;20262;-63
2023/09/08 03:57:09;;;;;;;4.28;3.97;;;;;;;;;;5079176;28;20541;-63
2023/09/08 03:59:37;;;;;;;4.70;4.30;;;;;;;;;;5078592;28;20307;-63
2023/09/08 04:02:06;;;;;;;4.10;3.80;;;;;;;;;;5078449;28;20204;-62
2023/09/08 04:04:33;;;;;;;4.80;4.40;;;;;;;;;;5078606;28;20293;-62
2023/09/08 04:07:01;;;;;;;4.45;4.05;;;;;;;;;;5078849;28;20244;-62
2023/09/08 04:09:28;;;;;;;4.82;4.00;;;;;;;;;;5078523;28;20315;-62
2023/09/08 04:11:56;;;;;;;4.38;3.97;;;;;;;;;;5078995;28;20208;-62
2023/09/08 04:14:26;;;;;;;4.78;4.38;;;;;;;;;;5078595;28;20299;-62
2023/09/08 04:16:54;;;;;;;4.50;4.10;;;;;;;;;;5078442;28;20204;-62
2023/09/08 04:19:23;;;;;;;4.85;4.43;;;;;;;;;;5077814;28;20837;-62
2023/09/08 04:21:50;;;;;;;4.88;4.53;;;;;;;;;;5077738;28;20212;-62
2023/09/08 04:24:18;;;;;;;4.32;4.03;;;;;;;;;;5077850;28;20230;-62
2023/09/08 04:26:45;;;;;;;4.30;4.00;;;;;;;;;;5077997;28;20288;-62
2023/09/08 04:29:13;;;;;;;4.70;4.40;;;;;;;;;;5077867;28;20228;-63
2023/09/08 04:31:40;;;;;;;4.50;4.20;;;;;;;;;;5077881;28;20326;-63
2023/09/08 04:34:08;;;;;;;4.50;4.20;;;;;;;;;;5077037;28;20254;-63
2023/09/08 04:36:37;;;;;;;4.40;4.10;;;;;;;;;;5077269;28;20208;-63
2023/09/08 04:39:04;;;;;;;4.22;3.92;;;;;;;;;;5076981;28;20200;-63
2023/09/08 04:41:32;;;;;;;4.50;4.20;;;;;;;;;;5076972;28;20269;-62
2023/09/08 04:44:00;;;;;;;4.82;4.43;;;;;;;;;;5076550;28;20675;-62
2023/09/08 04:46:27;;;;;;;4.30;4.00;;;;;;;;;;5076720;28;20243;-62
2023/09/08 04:48:54;;;;;;;4.32;4.03;;;;;;;;;;5075981;28;20341;-63
2023/09/08 04:51:22;;;;;;;4.50;4.10;;;;;;;;;;5075955;28;20204;-63
2023/09/08 04:53:51;;;;;;;4.10;3.80;;;;;;;;;;5075377;28;20291;-63
2023/09/08 04:56:18;;;;;;;4.00;3.70;;;;;;;;;;5075833;28;20244;-63
2023/09/08 04:58:45;;;;;;;4.20;3.90;;;;;;;;;;5094110;28;20255;-63
2023/09/08 05:01:13;;;;;;;4.40;4.03;;;;;;;;;;5095747;28;20196;-63
2023/09/08 05:03:40;;;;;;;4.70;4.40;;;;;;;;;;5095411;28;20212;-63
2023/09/08 05:06:08;;;;;;;4.10;3.80;;;;;;;;;;5095857;28;20242;-63
2023/09/08 05:08:35;;;;;;;4.13;3.83;;;;;;;;;;5094657;28;20846;-63
2023/09/08 05:11:04;;;;;;;4.20;3.90;;;;;;;;;;5095089;28;20203;-63
2023/09/08 05:13:32;;;;;;;4.53;4.22;;;;;;;;;;5096293;28;20314;-63
2023/09/08 05:16:10;;;;;;;5.00;4.55;;;;;;;;;;5095387;28;20538;-63
2023/09/08 05:18:38;;;;;;;4.22;3.83;;;;;;;;;;5093909;28;20199;-63
2023/09/08 05:21:06;;;;;;;4.22;3.92;;;;;;;;;;5094507;28;20302;-63
2023/09/08 05:23:33;;;;;;;3.90;3.60;;;;;;;;;;5094135;28;20235;-63
2023/09/08 05:26:01;;;;;;;4.90;4.50;;;;;;;;;;5095305;28;20595;-63
2023/09/08 05:28:30;;;;;;;4.18;3.88;;;;;;;;;;5094756;28;20316;-63
2023/09/08 05:30:57;;;;;;;4.32;3.92;;;;;;;;;;5094536;28;20661;-63
2023/09/08 05:33:25;;;;;;;4.45;4.15;;;;;;;;;;5093454;28;20268;-63
2023/09/08 05:35:52;;;;;;;4.20;3.90;;;;;;;;;;5093837;28;20207;-63
2023/09/08 05:38:19;;;;;;;4.50;4.10;;;;;;;;;;5094936;28;20302;-63
2023/09/08 05:40:47;;;;;;;4.00;3.70;;;;;;;;;;5094803;28;20211;-63
2023/09/08 05:43:14;;;;;;;4.55;4.15;;;;;;;;;;5094299;28;20268;-63
2023/09/08 05:45:43;;;;;;;4.30;3.97;;;;;;;;;;5093649;28;20286;-63
2023/09/08 05:48:10;;;;;;;4.50;4.20;;;;;;;;;;5094536;28;20318;-63
2023/09/08 05:50:38;;;;;;;8.02;4.00;;;;;;;;;;5094346;28;20315;-63
2023/09/08 05:53:06;;;;;;;4.10;3.80;;;;;;;;;;5094484;28;20259;-63
2023/09/08 05:55:33;;;;;;;5.20;4.38;;;;;;;;;;5094401;28;20272;-63
2023/09/08 05:58:00;;;;;;;4.70;4.35;;;;;;;;;;5094305;28;20335;-63
2023/09/08 06:00:28;;;;;;;4.60;4.25;;;;;;;;;;5094296;28;20587;-63
2023/09/08 06:02:57;;;;;;;4.40;4.10;;;;;;;;;;5094342;28;20216;-63
2023/09/08 06:05:24;;;;;;;5.20;4.25;;;;;;;;;;5094398;28;20207;-63
2023/09/08 06:07:51;;;;;;;4.35;4.05;;;;;;;;;;5098121;28;20284;-63
2023/09/08 06:10:19;;;;;;;4.57;4.28;;;;;;;;;;5099407;28;20294;-63
2023/09/08 06:12:46;;;;;;;4.35;4.05;;;;;;;;;;5098542;28;20594;-63
2023/09/08 06:15:14;;;;;;;4.82;4.38;;;;;;;;;;5099498;28;20200;-63
2023/09/08 06:17:41;;;;;;;4.68;4.30;;;;;;;;;;5099735;28;20204;-63
2023/09/08 06:20:11;;;;;;;4.65;4.25;;;;;;;;;;5099334;28;20249;-63
2023/09/08 06:22:39;;;;;;;4.75;4.32;;;;;;;;;;5099024;28;20204;-63
2023/09/08 06:25:07;;;;;;;4.93;4.53;;;;;;;;;;5099233;28;20298;-63
2023/09/08 06:27:34;;;;;;;5.13;4.72;;;;;;;;;;5098995;28;20203;-63
2023/09/08 06:30:02;;;;;;;6.07;4.70;;;;;;;;;;5098880;28;20314;-63
2023/09/08 06:32:29;;;;;;;5.18;4.78;;;;;;;;;;5099404;28;20246;-63
2023/09/08 06:34:57;;;;;;;4.80;4.40;;;;;;;;;;5073379;28;20212;-63
2023/09/08 06:37:26;;;;;;;5.07;4.68;;;;;;;;;;5076317;28;20273;-63
2023/09/08 06:39:55;;;;;;;4.78;4.43;;;;;;;;;;5078580;28;20208;-63
2023/09/08 06:42:26;;;;;;;5.00;4.60;;;;;;;;;;5078053;28;20312;-63
2023/09/08 06:44:55;;;;;;;4.90;4.50;;;;;;;;;;5078493;28;20208;-63
2023/09/08 06:47:22;;;;;;;5.32;4.82;;;;;;;;;;5077753;28;20213;-63
2023/09/08 06:49:50;;;;;;;5.10;4.70;;;;;;;;;;5077967;28;20382;-63
2023/09/08 06:52:18;;;;;;;5.32;4.93;;;;;;;;;;5078687;28;20335;-62
2023/09/08 06:54:47;;;;;;;5.55;4.85;;;;;;;;;;5078698;28;20281;-62
2023/09/08 06:57:16;;;;;;;5.57;5.13;;;;;;;;;;5078160;28;20264;-62
2023/09/08 06:59:43;;;;;;;5.18;4.78;;;;;;;;;;5077663;28;20204;-63
2023/09/08 07:02:11;;;;;;;5.32;4.82;;;;;;;;;;5077779;28;20228;-63
2023/09/08 07:04:38;;;;;;;5.63;5.13;;;;;;;;;;5077617;28;20310;-63
2023/09/08 07:07:07;;;;;;;5.45;4.95;;;;;;;;;;5076982;28;20301;-63
2023/09/08 07:09:35;;;;;;;6.07;5.57;;;;;;;;;;5077985;28;20297;-63
2023/09/08 07:12:05;;;;;;;5.75;5.28;;;;;;;;;;5078032;28;20204;-62
2023/09/08 07:14:32;;;;;;;5.72;5.22;;;;;;;;;;5077347;28;20694;-63
2023/09/08 07:17:00;;;;;;;5.43;4.97;;;;;;;;;;5076737;28;20684;-63
2023/09/08 07:19:27;;;;;;;5.47;5.07;;;;;;;;;;5077530;28;20239;-63
2023/09/08 07:21:55;;;;;;;5.72;5.30;;;;;;;;;;5077767;28;20648;-63
2023/09/08 07:24:23;;;;;;;5.63;5.13;;;;;;;;;;5077991;28;20266;-63
2023/09/08 07:26:51;;;;;;;5.45;5.05;;;;;;;;;;5077802;28;20663;-63
2023/09/08 07:29:20;;;;;;;5.60;5.10;;;;;;;;;;5076844;28;20322;-63
2023/09/08 07:31:47;;;;;;;5.50;5.10;;;;;;;;;;5077431;28;20208;-63
2023/09/08 07:34:14;;;;;;;5.40;5.00;;;;;;;;;;5077819;28;20576;-63
2023/09/08 07:36:42;;;;;;;5.65;5.15;;;;;;;;;;5077722;28;20295;-63
2023/09/08 07:39:09;;;;;;;5.63;5.10;;;;;;;;;;5077442;28;20293;-63
2023/09/08 07:41:39;;;;;;;5.60;5.10;;;;;;;;;;5076569;28;20299;-63
2023/09/08 07:44:06;;;;;;;5.68;5.20;;;;;;;;;;5077436;28;20218;-63
2023/09/08 07:46:35;;;;;;;5.35;4.95;;;;;;;;;;5077239;28;20302;-63
2023/09/08 07:49:03;;;;;;;5.10;4.70;;;;;;;;;;5076978;28;20259;-63
2023/09/08 07:51:30;;;;;;;5.53;5.03;;;;;;;;;;5076820;28;20204;-63
2023/09/08 07:53:58;;;;;;;5.55;5.03;;;;;;;;;;5076741;28;20206;-63
2023/09/08 07:56:25;;;;;;;5.07;4.60;;;;;;;;;;5077174;28;20212;-63
2023/09/08 07:58:53;;;;;;;5.30;4.90;;;;;;;;;;5077317;28;20520;-63
2023/09/08 08:01:20;;;;;;;5.68;5.18;;;;;;;;;;5077114;28;20257;-63
2023/09/08 08:03:49;;;;;;;5.13;4.72;;;;;;;;;;5077234;28;20239;-63
2023/09/08 08:06:16;;;;;;;5.32;4.93;;;;;;;;;;5077231;28;20205;-63
2023/09/08 08:08:44;;;;;;;5.22;4.70;;;;;;;;;;5077298;28;20204;-63
2023/09/08 08:11:13;;;;;;;5.63;5.13;;;;;;;;;;5077241;28;20286;-63
2023/09/08 08:13:40;;;;;;;5.43;5.03;;;;;;;;;;5076636;28;20273;-63
2023/09/08 08:16:08;;;;;;;5.78;5.18;;;;;;;;;;5077642;28;20248;-63
2023/09/08 08:18:35;;;;;;;5.55;5.15;;;;;;;;;;5077344;28;20611;-63
2023/09/08 08:21:04;;;;;;;5.82;5.18;;;;;;;;;;5076318;28;20600;-63
2023/09/08 08:23:33;;;;;;;6.00;5.50;;;;;;;;;;5076427;28;20204;-63
2023/09/08 08:26:01;;;;;;;6.18;5.40;;;;;;;;;;5075942;28;20213;-63
2023/09/08 08:28:28;;;;;;;5.70;5.22;;;;;;;;;;5075251;28;20204;-63
2023/09/08 08:30:56;;;;;;;5.53;5.03;;;;;;;;;;5076217;28;20293;-63
2023/09/08 08:33:25;;;;;;;6.40;5.80;;;;;;;;;;5075418;28;20262;-63
2023/09/08 08:35:53;;;;;;;6.20;5.70;;;;;;;;;;5075702;28;20239;-63
2023/09/08 08:38:22;;;;;;;6.30;5.70;;;;;;;;;;5075881;28;20208;-63
2023/09/08 08:40:49;;;;;;;5.70;5.22;;;;;;;;;;5075000;28;20714;-63
2023/09/08 08:43:17;;;;;;;5.68;5.18;;;;;;;;;;5076195;28;20314;-63
2023/09/08 08:45:44;;;;;;;5.72;5.22;;;;;;;;;;5076154;28;20212;-63
2023/09/08 08:48:12;;;;;;;5.40;5.00;;;;;;;;;;5076580;28;20204;-63
2023/09/08 08:50:40;;;;;;;5.20;4.80;;;;;;;;;;5076403;28;20259;-63
2023/09/08 08:53:08;;;;;;;5.75;5.25;;;;;;;;;;5075202;28;20204;-63
2023/09/08 08:55:37;;;;;;;5.60;5.10;;;;;;;;;;5075906;28;20262;-63
2023/09/08 08:58:06;;;;;;;5.30;4.80;;;;;;;;;;5075893;28;20696;-64
2023/09/08 09:00:36;;;;;;;5.40;5.00;;;;;;;;;;5075834;28;20607;-63
2023/09/08 09:03:06;;;;;;;5.82;5.32;;;;;;;;;;5076173;28;20196;-63
2023/09/08 09:05:33;;;;;;;5.30;4.90;;;;;;;;;;5075600;28;20209;-63
2023/09/08 09:08:03;;;;;;;5.43;4.93;;;;;;;;;;5075000;28;20303;-63
2023/09/08 09:10:31;;;;;;;5.63;5.13;;;;;;;;;;5075198;28;20316;-63
2023/09/08 09:12:59;;;;;;;5.00;4.57;;;;;;;;;;5075400;28;20291;-63
2023/09/08 09:15:31;;;;;;;5.40;5.00;;;;;;;;;;5075571;28;20204;-63
2023/09/08 09:18:05;;;;;;;5.47;5.07;;;;;;;;;;5075385;28;20209;-63
2023/09/08 09:20:32;;;;;;;5.70;5.10;;;;;;;;;;5075732;28;20296;-64
2023/09/08 09:23:00;;;;;;;5.68;5.10;;;;;;;;;;5074993;28;20227;-63
2023/09/08 09:25:29;;;;;;;5.07;4.57;;;;;;;;;;5075864;28;20239;-63
2023/09/08 09:27:57;;;;;;;5.65;5.15;;;;;;;;;;5074813;28;20595;-63
2023/09/08 09:30:26;;;;;;;5.70;5.13;;;;;;;;;;5074689;28;20690;-63
2023/09/08 09:33:03;;;;;;;5.03;4.60;;;;;;;;;;5075896;28;20539;-63
2023/09/08 09:35:44;;;;;;;5.70;5.20;;;;;;;;;;5075563;28;20288;-63
2023/09/08 09:38:11;;;;;;;5.78;5.28;;;;;;;;;;5074716;28;20203;-63
2023/09/08 09:40:39;;;;;;;5.82;5.25;;;;;;;;;;5074023;28;20291;-63
2023/09/08 09:43:07;;;;;;;5.22;4.82;;;;;;;;;;5072943;28;20208;-63
2023/09/08 09:45:36;;;;;;;5.68;5.18;;;;;;;;;;5074376;28;20608;-63
2023/09/08 09:48:04;;;;;;;5.93;4.97;;;;;;;;;;5073975;28;20310;-63
2023/09/08 09:50:32;;;;;;;5.18;4.78;;;;;;;;;;5074236;28;20323;-63
2023/09/08 09:53:00;;;;;;;5.20;4.75;;;;;;;;;;5074207;28;20214;-63
2023/09/08 09:55:28;;;;;;;5.55;5.05;;;;;;;;;;5074221;28;20770;-63
2023/09/08 09:57:58;;;;;;;5.65;5.15;;;;;;;;;;5074262;28;20235;-63
2023/09/08 10:00:26;;;;;;;5.60;5.00;;;;;;;;;;5073284;28;20905;-63
2023/09/08 10:02:55;;;;;;;5.40;4.93;;;;;;;;;;5074814;28;20314;-63
2023/09/08 10:05:23;;;;;;;5.72;5.22;;;;;;;;;;5074439;28;20215;-63
2023/09/08 10:07:51;;;;;;;5.45;5.03;;;;;;;;;;5072857;28;20626;-63
2023/09/08 10:10:18;;;;;;;5.82;5.20;;;;;;;;;;5074271;28;20228;-63
2023/09/08 10:12:47;;;;;;;5.40;4.90;;;;;;;;;;5074190;28;20294;-63
2023/09/08 10:15:16;;;;;;;5.60;4.72;;;;;;;;;;5073734;28;20620;-63
2023/09/08 10:17:46;;;;;;;6.18;4.90;;;;;;;;;;5072931;28;20287;-63
2023/09/08 10:20:16;;;;;;;5.28;4.88;;;;;;;;;;5073363;28;20253;-63
2023/09/08 10:22:44;;;;;;;5.95;5.45;;;;;;;;;;5073231;28;20489;-63
2023/09/08 10:25:14;;;;;;;5.38;4.88;;;;;;;;;;5073246;28;20737;-63
2023/09/08 10:27:42;;;;;;;5.38;4.88;;;;;;;;;;5073328;28;20254;-63
2023/09/08 10:30:11;;;;;;;5.70;5.20;;;;;;;;;;5071316;28;20220;-63
2023/09/08 10:32:38;;;;;;;5.25;4.68;;;;;;;;;;5073677;28;20219;-63
2023/09/08 10:35:06;;;;;;;5.65;5.03;;;;;;;;;;5072592;28;20275;-63
2023/09/08 10:37:35;;;;;;;5.18;4.78;;;;;;;;;;5073478;28;20291;-63
2023/09/08 10:40:21;;;;;;;5.80;5.30;;;;;;;;;;5071897;28;20196;-63
2023/09/08 10:42:49;;;;;;;5.75;5.25;;;;;;;;;;5073299;28;20302;-63
2023/09/08 10:45:17;;;;;;;5.90;5.32;;;;;;;;;;5072867;28;20207;-63
2023/09/08 10:47:57;;;;;;;5.45;4.95;;;;;;;;;;5073396;28;20280;-63
2023/09/08 10:50:28;;;;;;;5.85;5.20;;;;;;;;;;5072689;28;20224;-63
2023/09/08 10:53:10;;;;;;;5.70;5.20;;;;;;;;;;5075896;28;20266;-63
2023/09/08 10:55:38;;;;;;;6.15;5.05;;;;;;;;;;5078122;28;20204;-63
2023/09/08 10:58:06;;;;;;;5.95;5.35;;;;;;;;;;5077840;28;20503;-63
2023/09/08 11:00:44;;;;;;;6.10;5.50;;;;;;;;;;5077747;28;20220;-63
2023/09/08 11:03:12;;;;;;;5.65;4.95;;;;;;;;;;5077853;28;20291;-63
2023/09/08 11:05:39;;;;;;;5.25;4.80;;;;;;;;;;5077709;28;20208;-63
2023/09/08 11:08:08;;;;;;;5.90;5.40;;;;;;;;;;5076104;28;20276;-63
2023/09/08 11:10:37;;;;;;;5.38;4.88;;;;;;;;;;5076857;28;20231;-63
2023/09/08 11:13:06;;;;;;;5.57;5.05;;;;;;;;;;5077759;28;20212;-63
2023/09/08 11:15:34;;;;;;;5.60;5.10;;;;;;;;;;5076967;28;20298;-63
2023/09/08 11:18:06;;;;;;;5.45;4.95;;;;;;;;;;5075916;28;20214;-63
2023/09/08 11:20:34;;;;;;;5.22;4.82;;;;;;;;;;5077015;28;20200;-63
2023/09/08 11:23:01;;;;;;;5.00;4.60;;;;;;;;;;5076459;28;20208;-63
2023/09/08 11:25:30;;;;;;;6.35;4.93;;;;;;;;;;5076503;28;20254;-63
2023/09/08 11:27:58;;;;;;;5.22;4.75;;;;;;;;;;5075364;28;20261;-63
2023/09/08 11:30:26;;;;;;;5.55;5.05;;;;;;;;;;5076007;28;20670;-63
2023/09/08 11:32:54;;;;;;;5.78;4.78;;;;;;;;;;5076483;28;20210;-63
2023/09/08 11:35:22;;;;;;;5.50;5.00;;;;;;;;;;5076260;28;20307;-63
2023/09/08 11:37:51;;;;;;;5.18;4.78;;;;;;;;;;5076225;28;20265;-63
2023/09/08 11:40:21;;;;;;;5.47;4.97;;;;;;;;;;5075059;28;20200;-63
2023/09/08 11:42:50;;;;;;;4.95;4.55;;;;;;;;;;5075419;28;20204;-63
2023/09/08 11:45:21;;;;;;;4.90;4.50;;;;;;;;;;5075292;28;20756;-64
2023/09/08 11:47:50;;;;;;;5.05;4.55;;;;;;;;;;5074934;28;20311;-63
2023/09/08 11:50:19;;;;;;;4.70;4.30;;;;;;;;;;5075168;28;20239;-63
2023/09/08 11:52:48;;;;;;;5.45;5.00;;;;;;;;;;5074917;28;20699;-63
2023/09/08 11:55:15;;;;;;;4.78;4.38;;;;;;;;;;5075556;28;20292;-63
2023/09/08 11:57:44;;;;;;;4.80;4.30;;;;;;;;;;5075327;28;20236;-63
2023/09/08 12:00:16;;;;;;;4.60;4.20;;;;;;;;;;5075058;28;20281;-63
2023/09/08 12:02:45;;;;;;;4.75;4.38;;;;;;;;;;5075342;28;20587;-63
2023/09/08 12:05:15;;;;;;;5.20;4.70;;;;;;;;;;5074077;28;20295;-63
2023/09/08 12:07:43;;;;;;;4.75;4.32;;;;;;;;;;5075192;28;20219;-63
2023/09/08 12:10:11;;;;;;;4.68;4.28;;;;;;;;;;5075991;28;20277;-63
2023/09/08 12:12:48;;;;;;;4.72;4.32;;;;;;;;;;5075221;28;20204;-63
2023/09/08 12:15:33;;;;;;;4.90;4.50;;;;;;;;;;5076021;28;20671;-63
2023/09/08 12:18:03;;;;;;;4.55;4.15;;;;;;;;;;5075413;28;20623;-63
2023/09/08 12:20:30;;;;;;;4.97;4.38;;;;;;;;;;5074291;28;20293;-63
2023/09/08 12:22:59;;;;;;;4.55;4.15;;;;;;;;;;5075025;28;20212;-63
2023/09/08 12:25:27;;;;;;;4.80;4.40;;;;;;;;;;5074540;28;20204;-63
2023/09/08 12:27:56;;;;;;;4.22;3.92;;;;;;;;;;5072784;28;20315;-63
2023/09/08 12:30:29;;;;;;;4.38;4.00;;;;;;;;;;5071991;28;20337;-63
2023/09/08 12:32:59;;;;;;;4.40;4.00;;;;;;;;;;5072404;28;20215;-63
2023/09/08 12:35:27;;;;;;;5.00;4.50;;;;;;;;;;5072312;28;20211;-63
2023/09/08 12:38:05;;;;;;;4.22;3.92;;;;;;;;;;5073793;28;20291;-63
2023/09/08 12:40:33;;;;;;;4.90;4.40;;;;;;;;;;5074399;28;20272;-63
2023/09/08 12:43:00;;;;;;;4.05;3.75;;;;;;;;;;5071418;28;20201;-63
2023/09/08 12:45:28;;;;;;;8.73;4.30;;;;;;;;;;5072787;28;20200;-63
2023/09/08 12:47:57;;;;;;;4.50;4.10;;;;;;;;;;5072940;28;20232;-63
2023/09/08 12:50:28;;;;;;;4.45;4.13;;;;;;;;;;5073061;28;20235;-63
2023/09/08 12:52:55;;;;;;;4.28;3.97;;;;;;;;;;5071643;28;20196;-63
2023/09/08 12:55:23;;;;;;;4.93;4.38;;;;;;;;;;5073892;28;20295;-63
2023/09/08 12:57:54;;;;;;;5.70;4.30;;;;;;;;;;5071442;28;20590;-63
2023/09/08 13:00:23;;;;;;;4.70;4.30;;;;;;;;;;5072601;28;20219;-63
2023/09/08 13:02:51;;;;;;;4.50;4.18;;;;;;;;;;5072701;28;20215;-63
2023/09/08 13:05:18;;;;;;;4.55;4.15;;;;;;;;;;5071967;28;20297;-63
2023/09/08 13:07:47;;;;;;;4.82;4.35;;;;;;;;;;5072614;28;20250;-63
2023/09/08 13:10:15;;;;;;;4.63;4.22;;;;;;;;;;5072202;28;20530;-63
2023/09/08 13:12:43;;;;;;;5.93;4.38;;;;;;;;;;5073270;28;20212;-63
2023/09/08 13:15:10;;;;;;;4.57;4.18;;;;;;;;;;5071429;28;20295;-63
2023/09/08 13:17:38;;;;;;;5.00;4.45;;;;;;;;;;5071951;28;20244;-63
2023/09/08 13:20:06;;;;;;;4.63;4.22;;;;;;;;;;5071868;28;20492;-63
2023/09/08 13:22:34;;;;;;;5.53;4.68;;;;;;;;;;5072994;28;20265;-63
2023/09/08 13:25:02;;;;;;;4.63;4.22;;;;;;;;;;5072717;28;20200;-63
2023/09/08 13:27:30;;;;;;;4.70;4.30;;;;;;;;;;5072129;28;20477;-63
2023/09/08 13:30:09;;;;;;;4.90;4.50;;;;;;;;;;5072413;28;20307;-63
2023/09/08 13:32:36;;;;;;;5.18;4.68;;;;;;;;;;5072492;28;20207;-63
2023/09/08 13:35:04;;;;;;;4.35;4.00;;;;;;;;;;5071475;28;20253;-63
2023/09/08 13:37:34;;;;;;;4.60;4.20;;;;;;;;;;5071861;28;20305;-63
2023/09/08 13:40:03;;;;;;;4.35;4.00;;;;;;;;;;5072056;28;20428;-63
2023/09/08 13:42:31;;;;;;;4.75;4.35;;;;;;;;;;5072848;28;20513;-63
2023/09/08 13:44:58;;;;;;;4.85;4.05;;;;;;;;;;5071863;28;20218;-63
2023/09/08 13:47:25;;;;;;;4.43;4.13;;;;;;;;;;5071832;28;20558;-63
2023/09/08 13:49:53;;;;;;;4.80;4.40;;;;;;;;;;5072051;28;20218;-63
2023/09/08 13:52:21;;;;;;;4.55;4.15;;;;;;;;;;5072551;28;20561;-63
2023/09/08 13:54:48;;;;;;;4.75;4.35;;;;;;;;;;5072744;28;20247;-63
2023/09/08 13:57:19;;;;;;;4.80;4.40;;;;;;;;;;5072703;28;20258;-63
2023/09/08 13:59:46;;;;;;;4.32;4.03;;;;;;;;;;5071994;28;20588;-63
2023/09/08 14:02:14;;;;;;;4.95;4.50;;;;;;;;;;5072341;28;20295;-63
2023/09/08 14:04:41;;;;;;;4.70;4.30;;;;;;;;;;5072400;28;20295;-63
2023/09/08 14:07:10;;;;;;;4.50;4.10;;;;;;;;;;5073871;28;20349;-63
2023/09/08 14:09:37;;;;;;;4.53;4.13;;;;;;;;;;5072656;28;20400;-63
2023/09/08 14:12:05;;;;;;;4.72;4.32;;;;;;;;;;5073134;28;20250;-63
2023/09/08 14:14:34;;;;;;;4.60;4.20;;;;;;;;;;5071603;28;20291;-63
2023/09/08 14:17:02;;;;;;;4.78;4.40;;;;;;;;;;5072290;28;20447;-63
2023/09/08 14:19:29;;;;;;;4.88;4.47;;;;;;;;;;5071330;28;20299;-63
2023/09/08 14:21:57;;;;;;;4.75;4.30;;;;;;;;;;5072277;28;20592;-63
2023/09/08 14:24:25;;;;;;;4.68;4.22;;;;;;;;;;5072129;28;20234;-63
2023/09/08 14:26:53;;;;;;;4.82;4.43;;;;;;;;;;5072793;28;20278;-63
2023/09/08 14:29:20;;;;;;;4.72;4.28;;;;;;;;;;5075075;28;20378;-63
2023/09/08 14:31:49;;;;;;;4.50;4.20;;;;;;;;;;5075654;28;20322;-63
2023/09/08 14:34:17;;;;;;;4.93;4.53;;;;;;;;;;5075472;28;20204;-63
2023/09/08 14:36:44;;;;;;;4.47;4.07;;;;;;;;;;5075964;28;20385;-63
2023/09/08 14:39:11;;;;;;;4.88;4.47;;;;;;;;;;5076835;28;20235;-63
2023/09/08 14:41:39;;;;;;;4.95;4.50;;;;;;;;;;5076306;28;20655;-63
2023/09/08 14:44:07;;;;;;;4.82;4.40;;;;;;;;;;5076308;28;20261;-63
2023/09/08 14:46:34;;;;;;;5.25;4.85;;;;;;;;;;5075407;28;20206;-63
2023/09/08 14:49:03;;;;;;;4.82;4.43;;;;;;;;;;5075773;28;20231;-63
2023/09/08 14:51:31;;;;;;;4.82;4.43;;;;;;;;;;5075269;28;20507;-64